Flight Track Log - Related Links

Times and Time Zones

All times are in EDT time to prevent confusion due to time zone crossing. See the N539JB flight status page for this flight to view local times or setup timezone preferences in your user account.

Time Position Orientation Groundspeed Altitude Reporting Facility
EDT Latitude Longitude Course Direction KTS MPH feet Rate Location/Type
Fri 05:43:17 PM 40.9000 -72.3167 220° Southwest 101 116 2,000  Level New York TRACON
Fri 05:44:17 PM 40.9000 -72.2833 90° East 99 114 2,400 450 Climbing New York TRACON
Fri 05:45:17 PM 40.9167 -72.2333 66° East 107 123 2,900 550 Climbing New York TRACON
Fri 05:46:17 PM 40.9167 -72.2000 90° East 101 116 3,500 550 Climbing New York TRACON
Fri 05:47:17 PM 40.9333 -72.1667 56° Northeast 105 121 4,000 533 Climbing New York TRACON
Fri 05:49:06 PM 40.9225 -72.1186 107° East 124 143 5,000 525 Climbing Boston Center
Fri 05:50:20 PM 40.8972 -72.0886 138° Southeast 94 108 5,600 493 Climbing Boston Center
Fri 05:51:20 PM 40.8992 -72.0556 86° East 156 180 6,100 397 Climbing Boston Center
Fri 05:52:21 PM 40.9158 -72.0200 58° Northeast 118 136 6,400 290 Climbing Boston Center
Fri 05:53:24 PM 40.9322 -71.9786 62° Northeast 127 146 6,700 242 Climbing Boston Center
Fri 05:54:25 PM 40.9508 -71.9344 61° Northeast 137 158 6,900 197 Climbing Boston Center
Fri 05:55:26 PM 40.9736 -71.8847 59° Northeast 147 169 7,100 98 Climbing Boston Center
Fri 05:56:27 PM 41.0006 -71.8433 49° Northeast 144 166 7,100  Level Boston Center
Fri 05:57:27 PM 41.0231 -71.7908 60° Northeast 163 188 7,100 -50 Level Boston Center
Fri 05:58:28 PM 41.0478 -71.7467 53° Northeast 155 178 7,000  Descending Boston Center
Fri 05:59:29 PM 41.0706 -71.7022 56° Northeast 152 175 7,100  Climbing Boston Center
Fri 06:00:30 PM 41.0994 -71.6606 47° Northeast 144 166 7,000 -50 Descending Boston Center
Fri 06:01:30 PM 41.1219 -71.6217 52° Northeast 135 155 7,000  Level Boston Center
Fri 06:02:30 PM 41.1447 -71.5800 54° Northeast 134 154 7,000 50 Level Boston Center
Fri 06:03:31 PM 41.1444 -71.5442 91° East 128 147 7,100 50 Climbing Boston Center
Fri 06:04:31 PM 41.1128 -71.5228 153° Southeast 121 139 7,100  Level Boston Center
Fri 06:05:36 PM 41.0794 -71.5011 154° Southeast 129 148 7,100 -48 Level Boston Center
Fri 06:06:36 PM 41.0478 -71.4769 150° Southeast 130 150 7,000 -51 Descending Boston Center
Fri 06:07:34 PM 41.0411 -71.4300 101° East 140 161 7,000  Level Boston Center
Fri 06:08:35 PM 41.0469 -71.3806 81° East 137 158 7,000  Level Boston Center
Fri 06:10:00 PM 41.0531 -71.3313 53° Northeast  Level FlightAware Approximate
Fri 06:17:00 PM 41.2000 -71.0667 54° Northeast  Level FlightAware Approximate
Fri 06:18:00 PM 41.1857 -71.0238 114° Southeast  Level FlightAware Approximate
Fri 06:19:00 PM 41.1681 -70.9831 121° Southeast  Level FlightAware Approximate
Fri 06:20:00 PM 41.1499 -70.9429 121° Southeast  Level FlightAware Approximate
Fri 06:21:00 PM 41.1316 -70.9027 121° Southeast  Level FlightAware Approximate
Fri 06:22:00 PM 41.1133 -70.8625 121° Southeast  Level FlightAware Approximate
Fri 06:23:00 PM 41.1028 -70.8211 73° East  Level FlightAware Approximate
Fri 06:24:00 PM 41.1132 -70.7762 73° East  Level FlightAware Approximate
Fri 06:25:00 PM 41.1236 -70.7314 73° East  Level FlightAware Approximate
Fri 06:26:00 PM 41.1339 -70.6865 73° East  Level FlightAware Approximate
Fri 06:27:00 PM 41.1443 -70.6416 73° East  Level FlightAware Approximate
Fri 06:28:00 PM 41.1540 -70.5964 75° East  Level FlightAware Approximate
Fri 06:29:00 PM 41.1631 -70.5510 75° East  Level FlightAware Approximate
Fri 06:30:00 PM 41.1713 -70.5054 77° East  Level FlightAware Approximate
Fri 06:31:00 PM 41.1790 -70.4595 78° East  Level FlightAware Approximate
Fri 06:32:00 PM 41.1868 -70.4137 77° East  Level FlightAware Approximate
Fri 06:33:00 PM 41.1949 -70.3680 77° East  Level FlightAware Approximate
Fri 06:34:00 PM 41.2030 -70.3222 77° East  Level FlightAware Approximate
Fri 06:35:00 PM 41.2111 -70.2765 77° East  Level FlightAware Approximate
Fri 06:36:00 PM 41.2192 -70.2307 77° East  Level FlightAware Approximate
Fri 06:37:00 PM 41.2272 -70.1849 77° East  Level FlightAware Approximate
Fri 06:38:00 PM 41.2351 -70.1391 77° East  Level FlightAware Approximate
Fri 06:39:00 PM 41.2428 -70.0932 77° East  Level FlightAware Approximate
Fri 06:40:00 PM 41.2500 -70.0500 77° East  Level FlightAware Approximate
Fri 06:41:00 PM 41.2531 -70.0603 77° East  Level Estimated
Fri 06:42:00 PM 41.2531 -70.0603 77° East  Level Estimated
Fri 06:43:00 PM 41.2531 -70.0603 77° East  Level Estimated
Fri 06:44:00 PM 41.2531 -70.0603 77° East  Level Estimated
Fri 06:45:00 PM 41.2531 -70.0603 77° East  Level Estimated

Login

Don't have an account? Register now (free) for customized features, flight alerts, and more!